Time;durP1;ratioP1;P1;durP2;ratioP2;P2;SDS_P1;SDS_P2;PMS_P1;PMS_P2;Temp;Humidity;BMP_temperature;BMP_pressure;BME280_temperature;BME280_humidity;BME280_pressure;Samples;Min_cycle;Max_cycle;Signal;HPM_P1;HPM_P2
2021/06/25 00:02:39;;;;;;;17.90;5.80;;;17.10;99.90;;;;;;4473547;27;655863;-70
2021/06/25 00:05:26;;;;;;;8.07;5.17;;;17.10;99.90;;;;;;4497113;27;655697;-70
2021/06/25 00:08:14;;;;;;;14.43;5.37;;;17.00;99.90;;;;;;4489063;27;654400;-70
2021/06/25 00:11:03;;;;;;;11.40;5.37;;;17.00;99.90;;;;;;4498352;27;655172;-70
2021/06/25 00:13:50;;;;;;;12.80;5.23;;;16.90;99.90;;;;;;4482175;27;655672;-70
2021/06/25 00:16:38;;;;;;;10.00;5.23;;;16.90;99.90;;;;;;4480243;27;655806;-70
2021/06/25 00:19:25;;;;;;;10.63;4.33;;;16.90;99.90;;;;;;4489926;27;656553;-70
2021/06/25 00:22:13;;;;;;;11.17;4.33;;;16.90;99.90;;;;;;4469266;27;655569;-70
2021/06/25 00:25:00;;;;;;;13.27;4.77;;;16.80;99.90;;;;;;4505075;27;656510;-70
2021/06/25 00:27:49;;;;;;;7.53;4.20;;;16.80;99.90;;;;;;4479194;27;655395;-69
2021/06/25 00:30:36;;;;;;;9.67;4.83;;;16.80;99.90;;;;;;4490039;27;654260;-71
2021/06/25 00:33:24;;;;;;;10.33;5.47;;;16.70;99.90;;;;;;4466168;27;655379;-69
2021/06/25 00:36:11;;;;;;;12.52;5.47;;;16.70;99.90;;;;;;4499693;27;655885;-71
2021/06/25 00:38:59;;;;;;;12.83;5.73;;;16.70;99.90;;;;;;4482529;27;655393;-71
2021/06/25 00:41:46;;;;;;;16.13;5.73;;;16.70;99.90;;;;;;4504314;27;655812;-71
2021/06/25 00:44:39;;;;;;;13.60;6.47;;;16.70;99.90;;;;;;4485329;27;655556;-70
2021/06/25 00:47:26;;;;;;;13.77;6.37;;;16.70;99.90;;;;;;4476153;27;655577;-70
2021/06/25 00:50:15;;;;;;;13.57;6.43;;;16.70;99.90;;;;;;4478794;27;655536;-70
2021/06/25 00:53:03;;;;;;;16.33;7.03;;;16.60;99.90;;;;;;4495088;27;655982;-71
2021/06/25 00:55:50;;;;;;;13.10;6.33;;;16.60;99.90;;;;;;4470769;27;656208;-71
2021/06/25 00:58:38;;;;;;;12.50;6.50;;;16.60;99.90;;;;;;4480851;27;656008;-70
2021/06/25 01:01:27;;;;;;;13.27;6.87;;;16.60;99.90;;;;;;4494493;27;656384;-71
2021/06/25 01:04:14;;;;;;;11.67;6.17;;;16.60;99.90;;;;;;4468958;27;656947;-70
2021/06/25 01:07:02;;;;;;;12.17;6.23;;;16.60;99.90;;;;;;4489731;27;656473;-71
2021/06/25 01:09:49;;;;;;;10.33;6.23;;;16.60;99.90;;;;;;4472142;27;657907;-71
2021/06/25 01:12:37;;;;;;;10.90;5.67;;;16.50;99.90;;;;;;4495132;27;656866;-70
2021/06/25 01:15:24;;;;;;;10.30;5.50;;;16.60;99.90;;;;;;4463559;27;657609;-70
2021/06/25 01:18:13;;;;;;;13.33;5.30;;;16.60;99.90;;;;;;4495609;27;656228;-70
2021/06/25 01:21:02;;;;;;;11.80;5.03;;;16.60;99.90;;;;;;4465209;27;657359;-71
2021/06/25 01:23:49;;;;;;;9.37;5.23;;;16.60;99.90;;;;;;4464394;27;657889;-70
2021/06/25 01:26:37;;;;;;;15.67;5.90;;;16.60;99.90;;;;;;4488715;27;655399;-70
2021/06/25 01:29:24;;;;;;;11.03;5.60;;;16.60;99.90;;;;;;4478826;27;657815;-71
2021/06/25 01:32:12;;;;;;;7.70;3.83;;;16.70;99.90;;;;;;4503279;27;656873;-70
2021/06/25 01:35:01;;;;;;;10.87;3.90;;;16.60;99.90;;;;;;4480249;27;657027;-72
2021/06/25 01:37:50;;;;;;;8.03;3.67;;;16.60;99.90;;;;;;4475496;27;656594;-71
2021/06/25 01:40:38;;;;;;;8.80;3.50;;;16.50;99.90;;;;;;4499252;27;655797;-69
2021/06/25 01:43:26;;;;;;;6.43;3.37;;;16.60;99.90;;;;;;4502955;27;655885;-71
2021/06/25 01:46:15;;;;;;;12.93;3.77;;;16.60;99.90;;;;;;4469462;27;655322;-71
2021/06/25 01:49:03;;;;;;;7.20;3.20;;;16.60;99.90;;;;;;4478087;27;657495;-69
2021/06/25 01:51:50;;;;;;;8.50;3.10;;;16.60;99.90;;;;;;4492173;27;656950;-70
2021/06/25 01:54:39;;;;;;;5.63;3.07;;;16.60;99.90;;;;;;4482797;27;655635;-70
2021/06/25 01:57:26;;;;;;;10.60;3.63;;;16.50;99.90;;;;;;4500074;27;655292;-71
2021/06/25 02:00:15;;;;;;;9.33;3.30;;;16.40;99.90;;;;;;4471974;27;656362;-71
2021/06/25 02:03:02;;;;;;;5.70;3.43;;;16.40;99.90;;;;;;4491534;27;655257;-71
2021/06/25 02:05:49;;;;;;;10.53;3.63;;;16.50;99.90;;;;;;4468810;27;656797;-71
2021/06/25 02:08:38;;;;;;;9.50;3.10;;;16.50;99.90;;;;;;4504662;27;656477;-71
2021/06/25 02:11:27;;;;;;;5.33;2.80;;;16.50;99.90;;;;;;4484206;27;656228;-71
2021/06/25 02:14:15;;;;;;;5.27;3.20;;;16.40;99.90;;;;;;4486444;27;656721;-71
2021/06/25 02:17:03;;;;;;;6.33;3.00;;;16.40;99.90;;;;;;4503503;27;656276;-69
2021/06/25 02:19:50;;;;;;;6.63;3.20;;;16.40;99.90;;;;;;4511461;27;656366;-71
2021/06/25 02:22:38;;;;;;;7.67;3.10;;;16.40;99.90;;;;;;4489926;27;655472;-71
2021/06/25 02:25:25;;;;;;;6.07;3.22;;;16.40;99.90;;;;;;4495285;27;656022;-71
2021/06/25 02:28:14;;;;;;;6.07;3.10;;;16.40;99.90;;;;;;4488632;27;655630;-70
2021/06/25 02:31:02;;;;;;;11.98;2.88;;;16.50;99.90;;;;;;4508073;27;656133;-71
2021/06/25 02:33:49;;;;;;;5.93;3.27;;;16.50;99.90;;;;;;4483166;27;659264;-71
2021/06/25 02:36:37;;;;;;;3.63;2.60;;;16.50;99.90;;;;;;4507704;27;655509;-71
2021/06/25 02:39:24;;;;;;;7.20;2.87;;;16.50;99.90;;;;;;4476496;27;656744;-71
2021/06/25 02:42:12;;;;;;;7.03;3.43;;;16.50;99.90;;;;;;4508076;27;655304;-71
2021/06/25 02:45:01;;;;;;;8.97;2.87;;;16.50;99.90;;;;;;4488799;27;656894;-71
2021/06/25 02:47:48;;;;;;;5.37;3.07;;;16.50;99.90;;;;;;4473851;27;656125;-70
2021/06/25 02:50:36;;;;;;;13.57;3.60;;;16.50;99.90;;;;;;4499831;27;656806;-71
2021/06/25 02:53:23;;;;;;;5.10;2.70;;;16.50;99.90;;;;;;4482930;27;656465;-72
2021/06/25 02:56:11;;;;;;;13.27;3.37;;;16.50;99.90;;;;;;4507593;27;655915;-71
2021/06/25 02:58:58;;;;;;;8.80;2.47;;;16.50;99.90;;;;;;4470245;27;656504;-71
2021/06/25 03:01:47;;;;;;;8.63;2.80;;;16.50;99.90;;;;;;4508937;27;656973;-71
2021/06/25 03:04:35;;;;;;;4.97;2.90;;;16.40;99.90;;;;;;4486264;27;657165;-71
2021/06/25 03:07:23;;;;;;;4.93;2.33;;;16.50;99.90;;;;;;4503150;27;655307;-71
2021/06/25 03:10:11;;;;;;;5.37;2.30;;;16.40;99.90;;;;;;4499256;27;657138;-72
2021/06/25 03:12:58;;;;;;;4.13;2.43;;;16.50;99.90;;;;;;4488094;27;655488;-70
2021/06/25 03:15:46;;;;;;;7.67;2.43;;;16.50;99.90;;;;;;4510695;27;655669;-71
2021/06/25 03:18:34;;;;;;;4.43;2.43;;;16.60;99.90;;;;;;4486798;27;655877;-71
2021/06/25 03:21:22;;;;;;;5.73;2.50;;;16.60;99.90;;;;;;4507214;27;655713;-71
2021/06/25 03:24:09;;;;;;;4.47;2.47;;;16.60;99.90;;;;;;4484277;27;656915;-71
2021/06/25 03:26:57;;;;;;;4.63;2.20;;;16.60;99.90;;;;;;4501546;27;655624;-71
2021/06/25 03:29:44;;;;;;;3.60;2.20;;;16.70;99.90;;;;;;4484438;27;657148;-71
2021/06/25 03:32:32;;;;;;;3.13;2.37;;;16.70;99.90;;;;;;4507142;27;656702;-71
2021/06/25 03:35:21;;;;;;;7.50;2.33;;;16.70;99.90;;;;;;4483937;27;657097;-71
2021/06/25 03:38:08;;;;;;;6.97;2.60;;;16.70;99.90;;;;;;4487080;27;655775;-71
2021/06/25 03:40:56;;;;;;;6.73;2.33;;;16.80;99.90;;;;;;4506256;27;656801;-71
2021/06/25 03:43:43;;;;;;;4.43;2.57;;;16.90;99.90;;;;;;4486976;27;655832;-71
2021/06/25 03:46:31;;;;;;;4.60;2.30;;;16.90;99.90;;;;;;4497129;27;658248;-71
2021/06/25 03:49:18;;;;;;;6.33;2.30;;;16.90;99.90;;;;;;4484327;27;655736;-71
2021/06/25 03:52:08;;;;;;;10.33;2.40;;;17.00;99.90;;;;;;4503137;27;656864;-71
2021/06/25 03:54:55;;;;;;;10.40;2.47;;;17.10;99.90;;;;;;4473722;27;657132;-70
2021/06/25 03:57:43;;;;;;;8.43;2.40;;;17.10;99.90;;;;;;4490141;27;656552;-69
2021/06/25 04:00:31;;;;;;;6.60;2.40;;;17.20;99.90;;;;;;4499151;27;655976;-71
2021/06/25 04:03:18;;;;;;;5.87;2.33;;;17.20;99.90;;;;;;4481125;27;655852;-70
2021/06/25 04:06:06;;;;;;;8.57;2.30;;;17.20;99.90;;;;;;4506261;27;657201;-70
2021/06/25 04:08:55;;;;;;;3.63;1.97;;;17.30;99.90;;;;;;4481237;27;655667;-70
2021/06/25 04:11:43;;;;;;;7.17;2.43;;;17.30;99.90;;;;;;4506188;27;656178;-71
2021/06/25 04:14:30;;;;;;;3.27;2.10;;;17.30;99.90;;;;;;4481696;27;656150;-70
2021/06/25 04:17:18;;;;;;;5.40;2.27;;;17.30;99.90;;;;;;4480262;27;655639;-70
2021/06/25 04:20:06;;;;;;;7.75;2.00;;;17.30;99.90;;;;;;4500098;27;655633;-71
2021/06/25 04:22:54;;;;;;;6.03;1.90;;;17.30;99.90;;;;;;4486037;27;655480;-70
2021/06/25 04:25:43;;;;;;;4.23;2.27;;;17.30;99.90;;;;;;4491185;27;655939;-70
2021/06/25 04:28:30;;;;;;;5.70;2.10;;;17.20;99.90;;;;;;4465709;27;656081;-70
2021/06/25 04:31:18;;;;;;;6.97;1.97;;;17.20;99.90;;;;;;4470554;27;655517;-70
2021/06/25 04:34:05;;;;;;;5.87;2.07;;;17.30;99.90;;;;;;4496838;27;656132;-70
2021/06/25 04:36:53;;;;;;;3.67;1.87;;;17.30;99.90;;;;;;4470188;27;655605;-70
2021/06/25 04:39:40;;;;;;;5.63;2.30;;;17.40;99.90;;;;;;4503960;27;656034;-70
2021/06/25 04:42:29;;;;;;;2.93;2.37;;;17.50;99.90;;;;;;4476870;27;655935;-70
2021/06/25 04:45:17;;;;;;;4.83;2.30;;;17.60;99.90;;;;;;4492844;27;656092;-70
2021/06/25 04:48:05;;;;;;;2.97;2.30;;;17.60;99.90;;;;;;4469579;27;656946;-70
2021/06/25 04:50:53;;;;;;;3.60;1.90;;;17.80;99.90;;;;;;4484249;27;655509;-70
2021/06/25 04:53:40;;;;;;;3.83;2.00;;;17.90;99.90;;;;;;4504260;27;657022;-71
2021/06/25 04:56:28;;;;;;;4.07;2.30;;;18.00;99.90;;;;;;4478013;27;655328;-70
2021/06/25 04:59:16;;;;;;;7.03;2.07;;;18.00;99.90;;;;;;4489101;27;656931;-71
2021/06/25 05:02:06;;;;;;;5.77;2.40;;;18.10;99.90;;;;;;4480690;27;655775;-71
2021/06/25 05:04:54;;;;;;;5.27;2.63;;;18.10;99.90;;;;;;4468013;27;655771;-71
2021/06/25 05:07:41;;;;;;;7.80;2.60;;;18.20;99.90;;;;;;4505840;27;656072;-71
2021/06/25 05:10:29;;;;;;;9.37;2.77;;;18.10;99.90;;;;;;4475930;27;655572;-70
2021/06/25 05:13:17;;;;;;;4.50;2.60;;;18.20;99.90;;;;;;4499091;27;655432;-70
2021/06/25 05:16:06;;;;;;;7.03;3.70;;;18.20;99.90;;;;;;4472281;27;656436;-71
2021/06/25 05:18:54;;;;;;;7.80;3.03;;;18.30;99.90;;;;;;4485414;27;655565;-71
2021/06/25 05:21:41;;;;;;;4.43;3.23;;;18.50;99.90;;;;;;4495636;27;656023;-70
2021/06/25 05:24:29;;;;;;;7.07;3.20;;;18.70;99.90;;;;;;4477311;27;655557;-70
2021/06/25 05:27:16;;;;;;;11.03;3.63;;;18.80;99.90;;;;;;4488914;27;656356;-70
2021/06/25 05:30:04;;;;;;;9.03;3.27;;;18.80;99.90;;;;;;4468536;27;656937;-70
2021/06/25 05:32:54;;;;;;;6.27;3.33;;;18.90;99.90;;;;;;4488129;27;655425;-69
2021/06/25 05:35:42;;;;;;;8.40;3.50;;;19.00;99.90;;;;;;4478337;27;656323;-69
2021/06/25 05:38:30;;;;;;;7.67;3.20;;;19.10;99.90;;;;;;4479280;27;656014;-69
2021/06/25 05:41:18;;;;;;;8.53;3.53;;;19.10;99.90;;;;;;4492775;27;655671;-69
2021/06/25 05:44:06;;;;;;;6.83;3.40;;;19.20;99.90;;;;;;4493821;27;656912;-69
2021/06/25 05:46:53;;;;;;;6.60;3.50;;;19.30;99.90;;;;;;4469639;27;655331;-69
2021/06/25 05:49:42;;;;;;;10.50;4.10;;;19.50;99.90;;;;;;4488860;27;655920;-69
2021/06/25 05:52:30;;;;;;;9.43;4.13;;;19.60;99.90;;;;;;4479775;27;657756;-69
2021/06/25 05:55:17;;;;;;;9.03;4.37;;;19.70;99.90;;;;;;4489085;27;655979;-69
2021/06/25 05:58:05;;;;;;;10.70;4.60;;;19.70;99.90;;;;;;4470816;27;656198;-69
2021/06/25 06:00:53;;;;;;;9.43;4.33;;;19.60;99.90;;;;;;4486002;27;656533;-69
2021/06/25 06:03:40;;;;;;;9.43;3.83;;;19.70;99.90;;;;;;4487561;27;656903;-70
2021/06/25 06:06:29;;;;;;;12.30;4.33;;;19.70;99.90;;;;;;4468891;27;655554;-69
2021/06/25 06:09:17;;;;;;;8.00;3.70;;;19.70;99.90;;;;;;4494083;27;656368;-69
2021/06/25 06:12:05;;;;;;;6.77;4.00;;;19.60;99.90;;;;;;4473201;27;655989;-69
2021/06/25 06:14:53;;;;;;;6.87;4.47;;;19.60;99.90;;;;;;4493143;27;655561;-69
2021/06/25 06:17:43;;;;;;;8.10;4.10;;;19.60;99.90;;;;;;4495882;27;656477;-69
2021/06/25 06:20:30;;;;;;;9.43;4.33;;;19.70;99.90;;;;;;4473680;27;656191;-69
2021/06/25 06:32:40;;;;;;;7.37;4.10;;;20.10;99.90;;;;;;4461662;27;656433;-69
2021/06/25 06:35:28;;;;;;;8.47;4.30;;;20.30;99.90;;;;;;4461627;27;655641;-69
2021/06/25 06:38:15;;;;;;;9.53;4.73;;;20.50;99.90;;;;;;4505163;27;657716;-69
2021/06/25 06:41:04;;;;;;;13.97;5.07;;;20.60;99.90;;;;;;4488707;27;655477;-69
2021/06/25 06:43:52;;;;;;;9.67;4.77;;;20.70;99.90;;;;;;4503101;27;656395;-69
2021/06/25 06:46:39;;;;;;;8.73;4.37;;;21.00;99.90;;;;;;4488191;27;655824;-69
2021/06/25 06:49:26;;;;;;;9.73;4.73;;;21.20;99.90;;;;;;4505970;27;656226;-69
2021/06/25 06:52:14;;;;;;;9.03;5.03;;;21.40;99.90;;;;;;4478825;27;655483;-69
2021/06/25 06:55:01;;;;;;;10.13;5.20;;;21.40;99.90;;;;;;4507484;27;656434;-69
2021/06/25 06:57:50;;;;;;;8.47;5.30;;;21.40;99.90;;;;;;4471255;27;656439;-69
2021/06/25 07:00:38;;;;;;;8.83;5.53;;;21.40;99.90;;;;;;4483998;27;655665;-69
2021/06/25 07:03:25;;;;;;;12.20;6.37;;;21.60;99.90;;;;;;4505457;27;656074;-69
2021/06/25 07:06:14;;;;;;;13.17;6.37;;;21.90;99.90;;;;;;4486424;27;657033;-69
2021/06/25 07:09:01;;;;;;;11.47;5.80;;;22.10;99.90;;;;;;4505523;27;657079;-71
2021/06/25 07:11:48;;;;;;;13.43;6.80;;;22.20;99.90;;;;;;4478754;27;656919;-70
2021/06/25 07:14:37;;;;;;;13.80;6.73;;;22.20;99.90;;;;;;4498604;27;656987;-70
2021/06/25 07:17:25;;;;;;;16.33;7.67;;;22.10;99.90;;;;;;4469208;27;657056;-69
2021/06/25 07:20:13;;;;;;;14.00;7.20;;;22.00;99.90;;;;;;4496474;27;656283;-69
2021/06/25 07:23:01;;;;;;;16.03;7.43;;;21.90;99.90;;;;;;4495430;27;657237;-70
2021/06/25 07:25:48;;;;;;;17.37;7.83;;;22.00;99.90;;;;;;4471674;27;656603;-69
2021/06/25 07:28:36;;;;;;;11.50;6.75;;;22.00;99.90;;;;;;4489035;27;657364;-69
2021/06/25 07:31:25;;;;;;;18.70;6.63;;;21.90;99.90;;;;;;4478330;27;656332;-69
2021/06/25 07:34:13;;;;;;;14.93;7.20;;;22.00;99.90;;;;;;4485242;27;656422;-69
2021/06/25 07:37:00;;;;;;;13.53;7.43;;;22.20;99.90;;;;;;4499182;27;656496;-70
2021/06/25 07:39:48;;;;;;;14.47;7.20;;;22.30;99.90;;;;;;4484777;27;656592;-69
2021/06/25 07:42:35;;;;;;;17.53;7.83;;;22.50;99.90;;;;;;4496703;27;656815;-69
2021/06/25 07:45:23;;;;;;;16.07;8.53;;;22.80;99.90;;;;;;4479728;27;656725;-70
2021/06/25 07:48:11;;;;;;;15.57;8.37;;;22.90;99.90;;;;;;4504907;27;658405;-70
2021/06/25 07:50:59;;;;;;;16.57;8.57;;;23.00;99.90;;;;;;4472099;27;656450;-70
2021/06/25 07:53:46;;;;;;;18.20;8.90;;;23.00;99.90;;;;;;4491623;27;656626;-70
2021/06/25 07:56:34;;;;;;;15.43;8.97;;;22.90;99.90;;;;;;4478840;27;656783;-69
2021/06/25 07:59:21;;;;;;;16.63;8.70;;;23.00;99.90;;;;;;4504895;27;657087;-70
2021/06/25 08:02:09;;;;;;;13.47;8.17;;;23.00;99.90;;;;;;4471090;27;656746;-69
2021/06/25 08:04:58;;;;;;;14.67;8.07;;;23.20;99.90;;;;;;4503368;27;658546;-69
2021/06/25 08:07:45;;;;;;;14.33;8.53;;;23.10;99.90;;;;;;4476450;27;657444;-70
2021/06/25 08:10:33;;;;;;;12.33;8.50;;;23.00;99.90;;;;;;4483626;27;656514;-69
2021/06/25 08:13:20;;;;;;;17.03;9.07;;;22.90;99.90;;;;;;4493623;27;656937;-70
2021/06/25 08:16:08;;;;;;;15.27;9.10;;;22.60;99.90;;;;;;4474831;27;656989;-69
2021/06/25 08:18:58;;;;;;;14.60;9.20;;;22.30;99.90;;;;;;4494151;27;657306;-69
2021/06/25 08:21:46;;;;;;;15.60;9.30;;;21.90;99.90;;;;;;4462020;27;658304;-70
2021/06/25 08:24:34;;;;;;;17.63;9.20;;;21.70;99.90;;;;;;4468620;27;657114;-70
2021/06/25 08:27:22;;;;;;;16.73;9.70;;;21.50;99.90;;;;;;4499662;27;656845;-70
2021/06/25 08:30:11;;;;;;;16.87;9.37;;;21.30;99.90;;;;;;4471431;27;657706;-70
2021/06/25 08:32:58;;;;;;;14.40;8.53;;;21.30;99.90;;;;;;4469493;27;657096;-69
2021/06/25 08:35:45;;;;;;;15.57;8.70;;;21.20;99.90;;;;;;4492197;27;656994;-69
2021/06/25 08:38:34;;;;;;;15.83;9.03;;;21.20;99.90;;;;;;4469783;27;656484;-69
2021/06/25 08:41:22;;;;;;;14.67;9.20;;;21.30;99.90;;;;;;4494641;27;656323;-69
2021/06/25 08:44:09;;;;;;;13.80;9.33;;;21.40;99.90;;;;;;4481520;27;657155;-69
2021/06/25 08:46:57;;;;;;;14.43;9.27;;;21.50;99.90;;;;;;4496030;27;657389;-69
2021/06/25 08:49:47;;;;;;;14.07;9.17;;;21.80;99.90;;;;;;4481709;27;656627;-69
2021/06/25 08:52:34;;;;;;;14.23;8.87;;;22.50;99.90;;;;;;4474654;27;657662;-69
2021/06/25 08:55:23;;;;;;;12.07;8.93;;;23.40;99.90;;;;;;4488908;27;656999;-69
2021/06/25 08:58:13;;;;;;;16.73;11.20;;;23.90;99.90;;;;;;4479826;27;657502;-69
2021/06/25 09:01:00;;;;;;;17.03;11.30;;;24.30;99.90;;;;;;4472456;27;657809;-70
2021/06/25 09:03:52;;;;;;;14.57;11.67;;;24.60;99.90;;;;;;4472498;27;657884;-69
2021/06/25 09:06:53;;;;;;;17.95;11.77;;;25.00;99.90;;;;;;4470892;27;659597;-69
2021/06/25 09:09:42;;;;;;;18.58;12.00;;;25.10;99.90;;;;;;4463154;27;658469;-70
2021/06/25 09:12:31;;;;;;;23.37;12.80;;;24.90;99.90;;;;;;4468202;27;659035;-70
2021/06/25 09:15:18;;;;;;;20.10;13.27;;;24.60;99.90;;;;;;4480162;27;657799;-69
2021/06/25 09:18:07;;;;;;;23.60;13.70;;;24.20;99.90;;;;;;4497398;27;659268;-70
2021/06/25 09:20:54;;;;;;;24.45;14.32;;;23.90;99.90;;;;;;4477953;27;657959;-70
2021/06/25 09:23:42;;;;;;;22.80;14.93;;;23.50;99.90;;;;;;4503221;27;657616;-69
2021/06/25 09:26:34;;;;;;;21.10;13.30;;;23.30;99.90;;;;;;4482405;27;658650;-69
2021/06/25 09:29:24;;;;;;;26.43;13.87;;;23.10;99.90;;;;;;4480134;27;658157;-70
2021/06/25 09:32:12;;;;;;;21.27;14.87;;;22.90;99.90;;;;;;4472307;27;658063;-70
2021/06/25 09:35:00;;;;;;;21.67;13.83;;;22.70;99.90;;;;;;4472965;27;658584;-70
2021/06/25 09:37:49;;;;;;;26.57;14.33;;;22.50;99.90;;;;;;4469327;27;657415;-69
2021/06/25 09:40:36;;;;;;;22.53;15.33;;;22.40;99.90;;;;;;4494119;27;658077;-69
2021/06/25 09:43:25;;;;;;;23.03;15.40;;;22.30;99.90;;;;;;4481320;27;657626;-69
2021/06/25 09:46:27;;;;;;;19.80;15.20;;;22.30;99.90;;;;;;4489827;27;657968;-70
2021/06/25 09:49:15;;;;;;;21.23;14.83;;;22.10;99.90;;;;;;4453146;27;658532;-70
2021/06/25 09:52:04;;;;;;;24.73;15.53;;;21.90;99.90;;;;;;4483128;27;657814;-70
2021/06/25 09:54:53;;;;;;;20.93;15.10;;;21.80;99.90;;;;;;4502061;27;658490;-70
2021/06/25 09:58:30;;;;;;;25.30;15.30;;;21.70;99.90;;;;;;4464690;27;658958;-70
2021/06/25 10:01:22;;;;;;;24.93;15.57;;;21.50;99.90;;;;;;4454537;27;657764;-70
2021/06/25 10:04:09;;;;;;;21.67;15.53;;;21.50;99.90;;;;;;4479008;27;657350;-70
2021/06/25 10:07:11;;;;;;;19.53;15.10;;;21.50;99.90;;;;;;4502523;27;657769;-70
2021/06/25 10:10:01;;;;;;;21.07;14.67;;;21.30;99.90;;;;;;4456317;27;658539;-69
2021/06/25 10:12:49;;;;;;;20.27;15.37;;;21.20;99.90;;;;;;4472504;27;657691;-69
2021/06/25 10:15:37;;;;;;;25.33;15.33;;;21.00;99.90;;;;;;4492287;27;657778;-70
2021/06/25 10:18:27;;;;;;;31.83;16.70;;;21.00;99.90;;;;;;4480793;27;658444;-70
2021/06/25 10:21:15;;;;;;;24.33;16.03;;;20.90;99.90;;;;;;4474504;27;657903;-70
2021/06/25 10:24:04;;;;;;;22.53;15.67;;;20.80;99.90;;;;;;4499795;27;657638;-69
2021/06/25 10:26:52;;;;;;;26.20;16.80;;;20.80;99.90;;;;;;4504594;27;657859;-70
2021/06/25 10:29:39;;;;;;;26.20;16.67;;;20.80;99.90;;;;;;4469309;27;657507;-70
2021/06/25 10:32:27;;;;;;;26.23;15.93;;;20.80;99.90;;;;;;4489691;27;657861;-70
2021/06/25 10:35:16;;;;;;;25.60;16.47;;;20.80;99.90;;;;;;4476218;27;659195;-70
2021/06/25 10:38:04;;;;;;;27.50;17.40;;;20.70;99.90;;;;;;4480923;27;658123;-70
2021/06/25 10:40:56;;;;;;;28.17;16.10;;;20.60;99.90;;;;;;4495190;27;657558;-70
2021/06/25 10:43:45;;;;;;;25.00;16.27;;;20.60;99.90;;;;;;4459931;27;658062;-70
2021/06/25 10:46:37;;;;;;;27.97;16.43;;;20.60;99.90;;;;;;4470523;27;657422;-70
2021/06/25 10:49:25;;;;;;;22.23;15.20;;;20.50;99.90;;;;;;4478881;27;658152;-70
2021/06/25 10:52:14;;;;;;;21.30;14.73;;;20.50;99.90;;;;;;4494438;27;657529;-69
2021/06/25 10:55:02;;;;;;;21.37;15.43;;;20.50;99.90;;;;;;4505008;27;658514;-69
2021/06/25 10:58:07;;;;;;;20.33;15.17;;;20.40;99.90;;;;;;4465860;27;659058;-69
2021/06/25 11:00:57;;;;;;;23.73;14.23;;;20.50;99.90;;;;;;4451026;27;657860;-69
2021/06/25 11:03:46;;;;;;;30.07;15.90;;;20.60;99.90;;;;;;4474074;27;659160;-69
2021/06/25 11:06:51;;;;;;;20.63;14.20;;;20.60;99.90;;;;;;4479765;27;657422;-69
2021/06/25 11:09:57;;;;;;;20.90;14.77;;;20.60;99.90;;;;;;4476942;27;657706;-69
2021/06/25 11:12:45;;;;;;;22.03;14.40;;;20.60;99.90;;;;;;4441946;27;659299;-69
2021/06/25 11:15:33;;;;;;;20.50;14.00;;;20.60;99.90;;;;;;4489862;27;657747;-69
2021/06/25 11:18:21;;;;;;;20.83;13.93;;;20.60;99.90;;;;;;4508613;27;658664;-69
2021/06/25 11:21:09;;;;;;;21.70;13.30;;;20.70;99.90;;;;;;4479025;27;657597;-69
2021/06/25 11:23:57;;;;;;;21.90;14.07;;;20.70;99.90;;;;;;4504744;27;657783;-69
2021/06/25 11:26:55;;;;;;;20.67;13.27;;;20.80;99.90;;;;;;4477223;27;657307;-69
2021/06/25 11:29:44;;;;;;;20.10;13.93;;;20.90;99.90;;;;;;4455577;27;657686;-69
2021/06/25 11:32:32;;;;;;;20.37;13.17;;;20.90;99.90;;;;;;4507879;27;657621;-71
2021/06/25 11:35:34;;;;;;;21.00;13.77;;;20.80;99.90;;;;;;4478911;27;657882;-69
2021/06/25 11:38:52;;;;;;;23.13;13.33;;;20.80;99.90;;;;;;4474456;27;657506;-70
2021/06/25 11:41:41;;;;;;;23.73;14.73;;;20.90;99.90;;;;;;4478419;27;658365;-69
2021/06/25 11:44:32;;;;;;;20.60;14.47;;;20.80;99.90;;;;;;4484105;27;657748;-69
2021/06/25 11:47:23;;;;;;;22.97;14.40;;;20.80;99.90;;;;;;4482784;27;658107;-69
2021/06/25 11:50:16;;;;;;;27.67;17.43;;;20.70;99.90;;;;;;4479455;27;659023;-69
2021/06/25 11:53:04;;;;;;;30.80;16.47;;;20.70;99.90;;;;;;4485389;27;657941;-69
2021/06/25 11:55:53;;;;;;;26.53;17.17;;;20.60;99.90;;;;;;4501119;27;657787;-69
2021/06/25 11:58:53;;;;;;;27.07;17.53;;;20.60;99.90;;;;;;4483814;27;658825;-69
2021/06/25 12:01:55;;;;;;;28.57;17.13;;;20.60;99.90;;;;;;4464907;27;658395;-69
2021/06/25 12:04:43;;;;;;;24.00;17.20;;;20.90;99.90;;;;;;4455672;27;657408;-69
2021/06/25 12:07:31;;;;;;;22.37;15.50;;;21.20;99.90;;;;;;4501369;27;658780;-70
2021/06/25 12:10:19;;;;;;;24.50;15.67;;;21.40;99.90;;;;;;4483731;27;657645;-69
2021/06/25 12:13:06;;;;;;;25.40;16.07;;;21.40;99.90;;;;;;4495106;27;658813;-69
2021/06/25 12:15:54;;;;;;;28.23;15.50;;;21.50;99.90;;;;;;4482240;27;657508;-70
2021/06/25 12:18:45;;;;;;;28.87;16.67;;;21.70;99.90;;;;;;4503756;27;657837;-69
2021/06/25 12:21:33;;;;;;;27.83;16.83;;;22.00;99.90;;;;;;4475404;27;657592;-69
2021/06/25 12:24:20;;;;;;;26.57;15.87;;;22.00;99.90;;;;;;4496763;27;657847;-69
2021/06/25 12:27:08;;;;;;;24.60;15.50;;;22.00;99.90;;;;;;4480209;27;657635;-69
2021/06/25 12:30:00;;;;;;;25.25;15.82;;;22.20;99.90;;;;;;4504473;27;657583;-69
2021/06/25 12:32:58;;;;;;;22.87;15.60;;;22.30;99.90;;;;;;4475624;27;657966;-69
2021/06/25 12:35:47;;;;;;;20.47;14.60;;;22.70;99.90;;;;;;4477612;27;658282;-70
2021/06/25 12:38:35;;;;;;;24.93;17.03;;;23.10;99.90;;;;;;4478577;27;658646;-69
2021/06/25 12:41:23;;;;;;;21.10;15.18;;;23.30;99.90;;;;;;4478265;27;657559;-69
2021/06/25 12:44:11;;;;;;;21.03;13.97;;;23.40;99.90;;;;;;4504442;27;658905;-70
2021/06/25 12:47:06;;;;;;;21.57;13.53;;;23.40;99.90;;;;;;4480792;27;657548;-70
2021/06/25 12:49:54;;;;;;;22.73;14.90;;;23.30;99.90;;;;;;4456467;27;657749;-70
2021/06/25 12:52:43;;;;;;;23.67;14.87;;;23.00;99.90;;;;;;4491748;27;658354;-70
2021/06/25 12:55:30;;;;;;;21.10;15.47;;;23.10;99.90;;;;;;4470830;27;659010;-70
2021/06/25 12:58:20;;;;;;;18.97;13.97;;;23.20;99.90;;;;;;4481880;27;657826;-70
2021/06/25 13:01:08;;;;;;;20.37;15.03;;;23.40;99.90;;;;;;4491661;27;658025;-70
2021/06/25 13:03:57;;;;;;;21.10;14.30;;;23.50;99.90;;;;;;4497120;27;658533;-70
2021/06/25 13:06:48;;;;;;;20.73;14.13;;;23.50;99.90;;;;;;4483846;27;658250;-70
2021/06/25 13:09:38;;;;;;;21.77;14.33;;;23.30;99.90;;;;;;4479678;27;658472;-70
2021/06/25 13:12:26;;;;;;;20.90;13.83;;;23.10;99.90;;;;;;4478854;27;658153;-70
2021/06/25 13:15:14;;;;;;;19.93;14.40;;;23.00;99.90;;;;;;4482618;27;657652;-70
2021/06/25 13:18:02;;;;;;;24.97;15.80;;;22.90;99.90;;;;;;4502203;27;658149;-70
2021/06/25 13:21:27;;;;;;;24.17;17.30;;;22.60;99.90;;;;;;4479507;27;659692;-70
2021/06/25 13:24:37;;;;;;;35.40;22.37;;;22.30;99.90;;;;;;4456155;27;658375;-70
2021/06/25 13:27:26;;;;;;;29.63;20.97;;;21.90;99.90;;;;;;4455130;27;657915;-70
2021/06/25 13:30:18;;;;;;;30.03;19.80;;;22.00;99.90;;;;;;4477876;27;657529;-71
2021/06/25 13:33:09;;;;;;;25.70;17.73;;;22.00;99.90;;;;;;4478250;27;658652;-70
2021/06/25 13:35:56;;;;;;;29.00;18.17;;;22.30;99.90;;;;;;4470910;27;658420;-70
2021/06/25 13:38:44;;;;;;;23.27;16.63;;;22.50;99.90;;;;;;4475739;27;657667;-70
2021/06/25 13:41:37;;;;;;;30.70;17.73;;;22.60;99.90;;;;;;4488736;27;657864;-70
2021/06/25 13:44:30;;;;;;;25.33;17.13;;;22.70;99.90;;;;;;4454302;27;657878;-70
2021/06/25 13:47:18;;;;;;;25.33;17.37;;;22.70;99.90;;;;;;4463339;27;657370;-70
2021/06/25 13:50:07;;;;;;;25.30;17.03;;;22.60;99.90;;;;;;4505428;27;658831;-70
2021/06/25 13:52:57;;;;;;;26.30;16.60;;;22.60;99.90;;;;;;4485694;27;658661;-70
2021/06/25 13:55:45;;;;;;;27.70;18.73;;;22.50;99.90;;;;;;4480295;27;658407;-70
2021/06/25 13:58:33;;;;;;;31.73;19.33;;;22.30;99.90;;;;;;4503494;27;657978;-70
2021/06/25 14:01:23;;;;;;;32.37;20.80;;;22.20;99.90;;;;;;4499701;27;659182;-70
2021/06/25 14:04:13;;;;;;;27.23;19.87;;;22.30;99.90;;;;;;4473163;27;658836;-70
2021/06/25 14:07:01;;;;;;;31.27;19.83;;;22.20;99.90;;;;;;4481952;27;658426;-70
2021/06/25 14:09:49;;;;;;;34.90;21.37;;;22.50;99.90;;;;;;4487024;27;657844;-70
2021/06/25 14:12:45;;;;;;;40.60;25.30;;;22.40;99.90;;;;;;4505921;27;658150;-70
2021/06/25 14:15:46;;;;;;;35.97;22.77;;;22.20;99.90;;;;;;4463004;27;657928;-70
2021/06/25 14:18:35;;;;;;;30.50;20.93;;;22.10;99.90;;;;;;4480630;27;657526;-70
2021/06/25 14:21:24;;;;;;;35.80;20.87;;;22.10;99.90;;;;;;4485520;27;657871;-70
2021/06/25 14:24:12;;;;;;;34.00;18.83;;;22.20;99.90;;;;;;4506032;27;658199;-70
2021/06/25 14:27:00;;;;;;;29.05;18.33;;;22.20;99.90;;;;;;4477786;27;659333;-70